sensor_id;sensor_type;location;lat;lon;timestamp;pressure;altitude;pressure_sealevel;temperature;humidity
65997;BME280;52765;52.258;21.052;2023-12-20T00:02:20;99794.47;;;6.24;100.00
65997;BME280;52765;52.258;21.052;2023-12-20T00:04:48;99795.91;;;6.19;100.00
65997;BME280;52765;52.258;21.052;2023-12-20T00:07:19;99790.28;;;6.12;100.00
65997;BME280;52765;52.258;21.052;2023-12-20T00:09:44;99790.69;;;6.17;100.00
65997;BME280;52765;52.258;21.052;2023-12-20T00:12:10;99779.84;;;6.19;100.00
65997;BME280;52765;52.258;21.052;2023-12-20T00:14:35;99784.78;;;6.14;100.00
65997;BME280;52765;52.258;21.052;2023-12-20T00:17:02;99771.13;;;6.17;100.00
65997;BME280;52765;52.258;21.052;2023-12-20T00:19:27;99785.19;;;6.09;100.00
65997;BME280;52765;52.258;21.052;2023-12-20T00:21:55;99782.38;;;6.10;100.00
65997;BME280;52765;52.258;21.052;2023-12-20T00:24:20;99774.50;;;6.09;100.00
65997;BME280;52765;52.258;21.052;2023-12-20T00:26:45;99784.91;;;6.02;100.00
65997;BME280;52765;52.258;21.052;2023-12-20T00:29:11;99783.25;;;6.01;100.00
65997;BME280;52765;52.258;21.052;2023-12-20T00:31:37;99779.56;;;6.02;100.00
65997;BME280;52765;52.258;21.052;2023-12-20T00:34:02;99782.38;;;6.01;100.00
65997;BME280;52765;52.258;21.052;2023-12-20T00:36:27;99768.19;;;6.00;100.00
65997;BME280;52765;52.258;21.052;2023-12-20T00:38:52;99769.56;;;5.95;100.00
65997;BME280;52765;52.258;21.052;2023-12-20T00:41:18;99765.78;;;5.97;100.00
65997;BME280;52765;52.258;21.052;2023-12-20T00:43:46;99765.78;;;5.97;100.00
65997;BME280;52765;52.258;21.052;2023-12-20T00:46:12;99764.69;;;6.00;100.00
65997;BME280;52765;52.258;21.052;2023-12-20T00:48:37;99765.66;;;5.99;100.00
65997;BME280;52765;52.258;21.052;2023-12-20T00:51:03;99762.13;;;5.98;100.00
65997;BME280;52765;52.258;21.052;2023-12-20T00:53:29;99768.31;;;5.99;100.00
65997;BME280;52765;52.258;21.052;2023-12-20T00:55:54;99755.94;;;5.98;100.00
65997;BME280;52765;52.258;21.052;2023-12-20T00:58:20;99757.34;;;6.02;100.00
65997;BME280;52765;52.258;21.052;2023-12-20T01:00:45;99760.44;;;5.97;100.00
65997;BME280;52765;52.258;21.052;2023-12-20T01:03:12;99755.78;;;5.99;100.00
65997;BME280;52765;52.258;21.052;2023-12-20T01:05:38;99744.41;;;5.97;100.00
65997;BME280;52765;52.258;21.052;2023-12-20T01:08:04;99749.31;;;6.02;100.00
65997;BME280;52765;52.258;21.052;2023-12-20T01:10:29;99751.84;;;6.03;100.00
65997;BME280;52765;52.258;21.052;2023-12-20T01:12:54;99751.16;;;6.01;100.00
65997;BME280;52765;52.258;21.052;2023-12-20T01:15:20;99744.13;;;6.00;100.00
65997;BME280;52765;52.258;21.052;2023-12-20T01:17:45;99744.25;;;5.99;100.00
65997;BME280;52765;52.258;21.052;2023-12-20T01:20:10;99748.50;;;6.01;100.00
65997;BME280;52765;52.258;21.052;2023-12-20T01:22:36;99750.31;;;6.01;100.00
65997;BME280;52765;52.258;21.052;2023-12-20T01:25:01;99742.97;;;6.03;100.00
65997;BME280;52765;52.258;21.052;2023-12-20T01:27:28;99754.53;;;6.03;100.00
65997;BME280;52765;52.258;21.052;2023-12-20T01:29:56;99729.47;;;6.04;100.00
65997;BME280;52765;52.258;21.052;2023-12-20T01:32:24;99730.88;;;6.08;100.00
65997;BME280;52765;52.258;21.052;2023-12-20T01:34:49;99731.84;;;6.07;100.00
65997;BME280;52765;52.258;21.052;2023-12-20T01:37:14;99738.50;;;6.03;100.00
65997;BME280;52765;52.258;21.052;2023-12-20T01:39:40;99714.72;;;6.00;100.00
65997;BME280;52765;52.258;21.052;2023-12-20T01:42:05;99716.53;;;6.00;100.00
65997;BME280;52765;52.258;21.052;2023-12-20T01:44:30;99715.53;;;6.01;100.00
65997;BME280;52765;52.258;21.052;2023-12-20T01:46:56;99724.72;;;5.98;100.00
65997;BME280;52765;52.258;21.052;2023-12-20T01:49:21;99725.53;;;5.99;100.00
65997;BME280;52765;52.258;21.052;2023-12-20T01:51:46;99724.25;;;6.03;100.00
65997;BME280;52765;52.258;21.052;2023-12-20T01:54:12;99710.34;;;5.99;100.00
65997;BME280;52765;52.258;21.052;2023-12-20T01:56:38;99713.16;;;5.98;100.00
65997;BME280;52765;52.258;21.052;2023-12-20T01:59:04;99719.38;;;5.98;100.00
65997;BME280;52765;52.258;21.052;2023-12-20T02:01:29;99712.72;;;6.02;100.00
65997;BME280;52765;52.258;21.052;2023-12-20T02:03:55;99715.25;;;6.04;100.00
65997;BME280;52765;52.258;21.052;2023-12-20T02:06:21;99718.78;;;6.04;100.00
65997;BME280;52765;52.258;21.052;2023-12-20T02:08:47;99716.97;;;6.05;100.00
65997;BME280;52765;52.258;21.052;2023-12-20T02:11:13;99705.84;;;6.00;100.00
65997;BME280;52765;52.258;21.052;2023-12-20T02:13:38;99706.38;;;5.93;100.00
65997;BME280;52765;52.258;21.052;2023-12-20T02:16:03;99704.69;;;5.92;100.00
65997;BME280;52765;52.258;21.052;2023-12-20T02:18:29;99705.28;;;5.96;100.00
65997;BME280;52765;52.258;21.052;2023-12-20T02:20:54;99698.13;;;5.97;100.00
65997;BME280;52765;52.258;21.052;2023-12-20T02:23:20;99691.47;;;5.91;100.00
65997;BME280;52765;52.258;21.052;2023-12-20T02:25:46;99693.16;;;5.92;100.00
65997;BME280;52765;52.258;21.052;2023-12-20T02:28:11;99694.13;;;5.91;100.00
65997;BME280;52765;52.258;21.052;2023-12-20T02:30:36;99697.53;;;5.93;100.00
65997;BME280;52765;52.258;21.052;2023-12-20T02:33:02;99687.81;;;5.92;100.00
65997;BME280;52765;52.258;21.052;2023-12-20T02:35:28;99678.69;;;5.95;100.00
65997;BME280;52765;52.258;21.052;2023-12-20T02:37:53;99670.38;;;5.98;100.00
65997;BME280;52765;52.258;21.052;2023-12-20T02:40:19;99671.25;;;5.98;100.00
65997;BME280;52765;52.258;21.052;2023-12-20T02:42:44;99675.00;;;5.96;100.00
65997;BME280;52765;52.258;21.052;2023-12-20T02:45:09;99665.88;;;5.98;100.00
65997;BME280;52765;52.258;21.052;2023-12-20T02:47:35;99673.47;;;6.03;100.00
65997;BME280;52765;52.258;21.052;2023-12-20T02:50:00;99674.03;;;6.06;100.00
65997;BME280;52765;52.258;21.052;2023-12-20T02:52:25;99658.28;;;6.03;100.00
65997;BME280;52765;52.258;21.052;2023-12-20T02:54:51;99670.34;;;6.07;100.00
65997;BME280;52765;52.258;21.052;2023-12-20T02:57:16;99668.94;;;6.13;100.00
65997;BME280;52765;52.258;21.052;2023-12-20T02:59:41;99672.06;;;5.99;100.00
65997;BME280;52765;52.258;21.052;2023-12-20T03:02:06;99671.78;;;5.92;100.00
65997;BME280;52765;52.258;21.052;2023-12-20T03:04:32;99668.69;;;5.87;100.00
65997;BME280;52765;52.258;21.052;2023-12-20T03:06:57;99666.28;;;5.93;100.00
65997;BME280;52765;52.258;21.052;2023-12-20T03:09:22;99668.44;;;6.00;100.00
65997;BME280;52765;52.258;21.052;2023-12-20T03:11:47;99664.44;;;5.94;100.00
65997;BME280;52765;52.258;21.052;2023-12-20T03:14:13;99660.09;;;5.93;100.00
65997;BME280;52765;52.258;21.052;2023-12-20T03:16:38;99661.78;;;5.94;100.00
65997;BME280;52765;52.258;21.052;2023-12-20T03:19:03;99655.44;;;5.95;100.00
65997;BME280;52765;52.258;21.052;2023-12-20T03:21:28;99635.03;;;5.94;100.00
65997;BME280;52765;52.258;21.052;2023-12-20T03:23:54;99653.50;;;5.97;100.00
65997;BME280;52765;52.258;21.052;2023-12-20T03:26:19;99671.63;;;5.93;100.00
65997;BME280;52765;52.258;21.052;2023-12-20T03:28:44;99667.25;;;5.92;100.00
65997;BME280;52765;52.258;21.052;2023-12-20T03:31:09;99665.88;;;5.98;100.00
65997;BME280;52765;52.258;21.052;2023-12-20T03:33:35;99665.28;;;6.04;100.00
65997;BME280;52765;52.258;21.052;2023-12-20T03:36:00;99647.69;;;6.11;100.00
65997;BME280;52765;52.258;21.052;2023-12-20T03:38:26;99653.31;;;6.18;100.00
65997;BME280;52765;52.258;21.052;2023-12-20T03:40:51;99655.13;;;6.18;100.00
65997;BME280;52765;52.258;21.052;2023-12-20T03:43:16;99637.69;;;6.14;100.00
65997;BME280;52765;52.258;21.052;2023-12-20T03:45:42;99642.75;;;6.17;100.00
65997;BME280;52765;52.258;21.052;2023-12-20T03:48:07;99643.59;;;6.17;100.00
65997;BME280;52765;52.258;21.052;2023-12-20T03:50:33;99639.06;;;6.18;100.00
65997;BME280;52765;52.258;21.052;2023-12-20T03:52:59;99652.16;;;6.21;100.00
65997;BME280;52765;52.258;21.052;2023-12-20T03:55:24;99648.50;;;6.22;100.00
65997;BME280;52765;52.258;21.052;2023-12-20T03:57:49;99645.53;;;6.25;100.00
65997;BME280;52765;52.258;21.052;2023-12-20T04:00:15;99652.28;;;6.29;100.00
65997;BME280;52765;52.258;21.052;2023-12-20T04:02:40;99648.34;;;6.33;100.00
65997;BME280;52765;52.258;21.052;2023-12-20T04:05:06;99641.56;;;6.29;100.00
65997;BME280;52765;52.258;21.052;2023-12-20T04:07:32;99643.66;;;6.35;100.00
65997;BME280;52765;52.258;21.052;2023-12-20T04:09:57;99642.59;;;6.28;100.00
65997;BME280;52765;52.258;21.052;2023-12-20T04:12:23;99653.97;;;6.30;100.00
65997;BME280;52765;52.258;21.052;2023-12-20T04:14:48;99649.75;;;6.27;100.00
65997;BME280;52765;52.258;21.052;2023-12-20T04:17:15;99640.88;;;6.27;100.00
65997;BME280;52765;52.258;21.052;2023-12-20T04:19:41;99646.66;;;6.22;100.00
65997;BME280;52765;52.258;21.052;2023-12-20T04:22:06;99655.38;;;6.24;100.00
65997;BME280;52765;52.258;21.052;2023-12-20T04:24:31;99651.44;;;6.28;100.00
65997;BME280;52765;52.258;21.052;2023-12-20T04:26:56;99640.88;;;6.27;100.00
65997;BME280;52765;52.258;21.052;2023-12-20T04:29:22;99639.91;;;6.28;100.00
65997;BME280;52765;52.258;21.052;2023-12-20T04:31:47;99647.22;;;6.26;100.00
65997;BME280;52765;52.258;21.052;2023-12-20T04:34:12;99646.81;;;6.21;100.00
65997;BME280;52765;52.258;21.052;2023-12-20T04:36:38;99648.06;;;6.26;100.00
65997;BME280;52765;52.258;21.052;2023-12-20T04:39:03;99641.31;;;6.22;100.00
65997;BME280;52765;52.258;21.052;2023-12-20T04:41:28;99643.72;;;6.16;100.00
65997;BME280;52765;52.258;21.052;2023-12-20T04:43:53;99654.28;;;6.17;100.00
65997;BME280;52765;52.258;21.052;2023-12-20T04:46:19;99657.78;;;6.18;100.00
65997;BME280;52765;52.258;21.052;2023-12-20T04:48:44;99650.63;;;6.18;100.00
65997;BME280;52765;52.258;21.052;2023-12-20T04:51:09;99651.22;;;6.12;100.00
65997;BME280;52765;52.258;21.052;2023-12-20T04:53:34;99652.50;;;6.08;100.00
65997;BME280;52765;52.258;21.052;2023-12-20T04:56:00;99643.63;;;6.07;100.00
65997;BME280;52765;52.258;21.052;2023-12-20T04:58:25;99646.56;;;6.04;100.00
65997;BME280;52765;52.258;21.052;2023-12-20T05:00:50;99649.56;;;6.01;100.00
65997;BME280;52765;52.258;21.052;2023-12-20T05:03:16;99649.56;;;6.01;100.00
65997;BME280;52765;52.258;21.052;2023-12-20T05:05:41;99641.81;;;6.08;100.00
65997;BME280;52765;52.258;21.052;2023-12-20T05:08:06;99640.09;;;6.17;100.00
65997;BME280;52765;52.258;21.052;2023-12-20T05:10:32;99633.72;;;6.18;100.00
65997;BME280;52765;52.258;21.052;2023-12-20T05:12:57;99636.13;;;6.11;100.00
65997;BME280;52765;52.258;21.052;2023-12-20T05:15:22;99631.13;;;6.08;100.00
65997;BME280;52765;52.258;21.052;2023-12-20T05:17:48;99625.59;;;6.09;100.00
65997;BME280;52765;52.258;21.052;2023-12-20T05:20:13;99626.16;;;6.13;100.00
65997;BME280;52765;52.258;21.052;2023-12-20T05:22:38;99620.28;;;6.00;100.00
65997;BME280;52765;52.258;21.052;2023-12-20T05:25:04;99627.03;;;6.04;100.00
65997;BME280;52765;52.258;21.052;2023-12-20T05:27:29;99623.38;;;6.05;100.00
65997;BME280;52765;52.258;21.052;2023-12-20T05:29:54;99618.03;;;6.05;100.00
65997;BME280;52765;52.258;21.052;2023-12-20T05:32:22;99628.19;;;6.01;100.00
65997;BME280;52765;52.258;21.052;2023-12-20T05:34:48;99622.97;;;6.00;100.00
65997;BME280;52765;52.258;21.052;2023-12-20T05:37:13;99617.47;;;6.01;100.00
65997;BME280;52765;52.258;21.052;2023-12-20T05:39:38;99616.47;;;6.02;100.00
65997;BME280;52765;52.258;21.052;2023-12-20T05:42:03;99613.09;;;6.00;100.00
65997;BME280;52765;52.258;21.052;2023-12-20T05:44:29;99617.91;;;5.97;100.00
65997;BME280;52765;52.258;21.052;2023-12-20T05:46:54;99621.28;;;5.99;100.00
65997;BME280;52765;52.258;21.052;2023-12-20T05:49:19;99616.91;;;5.98;100.00
65997;BME280;52765;52.258;21.052;2023-12-20T05:51:47;99612.97;;;6.02;100.00
65997;BME280;52765;52.258;21.052;2023-12-20T05:54:13;99613.25;;;5.99;100.00
65997;BME280;52765;52.258;21.052;2023-12-20T05:56:38;99616.91;;;5.98;100.00
65997;BME280;52765;52.258;21.052;2023-12-20T05:59:03;99611.13;;;6.02;100.00
65997;BME280;52765;52.258;21.052;2023-12-20T06:01:29;99616.63;;;6.01;100.00
65997;BME280;52765;52.258;21.052;2023-12-20T06:03:54;99608.44;;;5.92;100.00
65997;BME280;52765;52.258;21.052;2023-12-20T06:06:19;99610.16;;;5.93;100.00
65997;BME280;52765;52.258;21.052;2023-12-20T06:08:45;99617.31;;;5.93;100.00
65997;BME280;52765;52.258;21.052;2023-12-20T06:11:10;99610.44;;;5.90;100.00
65997;BME280;52765;52.258;21.052;2023-12-20T06:13:35;99615.63;;;5.92;100.00
65997;BME280;52765;52.258;21.052;2023-12-20T06:16:01;99615.50;;;5.93;100.00
65997;BME280;52765;52.258;21.052;2023-12-20T06:18:26;99625.94;;;5.97;100.00
65997;BME280;52765;52.258;21.052;2023-12-20T06:20:51;99612.28;;;5.90;100.00
65997;BME280;52765;52.258;21.052;2023-12-20T06:23:17;99615.78;;;5.90;100.00
65997;BME280;52765;52.258;21.052;2023-12-20T06:25:42;99621.41;;;5.87;100.00
65997;BME280;52765;52.258;21.052;2023-12-20T06:28:13;99623.81;;;5.81;100.00
65997;BME280;52765;52.258;21.052;2023-12-20T06:30:40;99627.03;;;5.84;100.00
65997;BME280;52765;52.258;21.052;2023-12-20T06:33:05;99621.41;;;5.87;100.00
65997;BME280;52765;52.258;21.052;2023-12-20T06:35:31;99626.47;;;5.90;100.00
65997;BME280;52765;52.258;21.052;2023-12-20T06:37:57;99622.84;;;5.82;100.00
65997;BME280;52765;52.258;21.052;2023-12-20T06:40:22;99619.59;;;5.88;100.00
65997;BME280;52765;52.258;21.052;2023-12-20T06:42:47;99616.34;;;5.84;100.00
65997;BME280;52765;52.258;21.052;2023-12-20T06:45:13;99621.28;;;5.79;100.00
65997;BME280;52765;52.258;21.052;2023-12-20T06:47:38;99627.63;;;5.78;100.00
65997;BME280;52765;52.258;21.052;2023-12-20T06:50:03;99619.47;;;5.80;100.00
65997;BME280;52765;52.258;21.052;2023-12-20T06:52:28;99624.38;;;5.84;100.00
65997;BME280;52765;52.258;21.052;2023-12-20T06:54:54;99627.03;;;5.84;100.00
65997;BME280;52765;52.258;21.052;2023-12-20T06:57:19;99626.88;;;5.86;100.00
65997;BME280;52765;52.258;21.052;2023-12-20T06:59:44;99620.72;;;5.85;100.00
65997;BME280;52765;52.258;21.052;2023-12-20T07:02:10;99628.19;;;5.82;100.00
65997;BME280;52765;52.258;21.052;2023-12-20T07:04:41;99624.69;;;5.81;100.00
65997;BME280;52765;52.258;21.052;2023-12-20T07:07:06;99616.19;;;5.86;100.00
65997;BME280;52765;52.258;21.052;2023-12-20T07:09:32;99615.38;;;5.85;100.00
65997;BME280;52765;52.258;21.052;2023-12-20T07:11:58;99619.00;;;5.84;100.00
65997;BME280;52765;52.258;21.052;2023-12-20T07:14:23;99615.78;;;5.81;100.00
65997;BME280;52765;52.258;21.052;2023-12-20T07:16:48;99621.69;;;5.84;100.00
65997;BME280;52765;52.258;21.052;2023-12-20T07:19:14;99620.16;;;5.82;100.00
65997;BME280;52765;52.258;21.052;2023-12-20T07:21:39;99614.81;;;5.82;100.00
65997;BME280;52765;52.258;21.052;2023-12-20T07:24:04;99625.91;;;5.87;100.00
65997;BME280;52765;52.258;21.052;2023-12-20T07:26:30;99630.13;;;5.89;100.00
65997;BME280;52765;52.258;21.052;2023-12-20T07:28:55;99633.22;;;5.95;100.00
65997;BME280;52765;52.258;21.052;2023-12-20T07:31:20;99630.69;;;5.93;100.00
65997;BME280;52765;52.258;21.052;2023-12-20T07:33:45;99624.47;;;5.92;100.00
65997;BME280;52765;52.258;21.052;2023-12-20T07:36:11;99629.00;;;5.92;100.00
65997;BME280;52765;52.258;21.052;2023-12-20T07:38:36;99623.66;;;5.92;100.00
65997;BME280;52765;52.258;21.052;2023-12-20T07:41:02;99618.31;;;5.92;100.00
65997;BME280;52765;52.258;21.052;2023-12-20T07:43:27;99628.84;;;5.93;100.00
65997;BME280;52765;52.258;21.052;2023-12-20T07:45:53;99634.91;;;5.96;100.00
65997;BME280;52765;52.258;21.052;2023-12-20T07:48:18;99628.31;;;6.00;100.00
65997;BME280;52765;52.258;21.052;2023-12-20T07:50:43;99623.81;;;6.00;100.00
65997;BME280;52765;52.258;21.052;2023-12-20T07:53:08;99628.19;;;6.01;100.00
65997;BME280;52765;52.258;21.052;2023-12-20T07:55:34;99625.50;;;6.01;100.00
65997;BME280;52765;52.258;21.052;2023-12-20T07:57:59;99619.72;;;5.96;100.00
65997;BME280;52765;52.258;21.052;2023-12-20T08:00:25;99625.50;;;6.01;100.00
65997;BME280;52765;52.258;21.052;2023-12-20T08:02:50;99618.75;;;5.97;100.00
65997;BME280;52765;52.258;21.052;2023-12-20T08:05:16;99620.16;;;6.01;100.00
65997;BME280;52765;52.258;21.052;2023-12-20T08:07:41;99626.34;;;6.02;100.00
65997;BME280;52765;52.258;21.052;2023-12-20T08:10:06;99623.50;;;5.93;100.00
65997;BME280;52765;52.258;21.052;2023-12-20T08:12:32;99624.09;;;5.97;100.00
65997;BME280;52765;52.258;21.052;2023-12-20T08:14:58;99623.94;;;5.99;100.00
65997;BME280;52765;52.258;21.052;2023-12-20T08:17:24;99628.16;;;5.91;100.00
65997;BME280;52765;52.258;21.052;2023-12-20T08:19:49;99623.66;;;5.92;100.00
65997;BME280;52765;52.258;21.052;2023-12-20T08:22:14;99613.50;;;5.96;100.00
65997;BME280;52765;52.258;21.052;2023-12-20T08:24:39;99617.19;;;5.95;100.00
65997;BME280;52765;52.258;21.052;2023-12-20T08:27:05;99611.56;;;5.88;100.00
65997;BME280;52765;52.258;21.052;2023-12-20T08:29:30;99616.94;;;5.88;100.00
65997;BME280;52765;52.258;21.052;2023-12-20T08:31:56;99618.03;;;5.95;100.00
65997;BME280;52765;52.258;21.052;2023-12-20T08:34:22;99612.41;;;5.88;100.00
65997;BME280;52765;52.258;21.052;2023-12-20T08:36:48;99613.25;;;5.89;100.00
65997;BME280;52765;52.258;21.052;2023-12-20T08:39:17;99626.88;;;5.86;100.00
65997;BME280;52765;52.258;21.052;2023-12-20T08:41:45;99612.84;;;5.84;100.00
65997;BME280;52765;52.258;21.052;2023-12-20T08:44:10;99615.91;;;5.89;100.00
65997;BME280;52765;52.258;21.052;2023-12-20T08:46:36;99609.44;;;5.91;100.00
65997;BME280;52765;52.258;21.052;2023-12-20T08:49:01;99607.75;;;5.90;100.00
65997;BME280;52765;52.258;21.052;2023-12-20T08:51:29;99611.25;;;5.91;100.00
65997;BME280;52765;52.258;21.052;2023-12-20T08:53:55;99616.34;;;5.84;100.00
65997;BME280;52765;52.258;21.052;2023-12-20T08:56:20;99614.25;;;5.88;100.00
65997;BME280;52765;52.258;21.052;2023-12-20T08:58:46;99618.59;;;5.89;100.00
65997;BME280;52765;52.258;21.052;2023-12-20T09:01:11;99609.88;;;5.97;100.00
65997;BME280;52765;52.258;21.052;2023-12-20T09:03:37;99612.56;;;5.97;100.00
65997;BME280;52765;52.258;21.052;2023-12-20T09:06:05;99607.91;;;5.99;100.00
65997;BME280;52765;52.258;21.052;2023-12-20T09:08:30;99607.91;;;5.99;100.00
65997;BME280;52765;52.258;21.052;2023-12-20T09:10:58;99601.72;;;5.98;100.00
65997;BME280;52765;52.258;21.052;2023-12-20T09:13:24;99605.91;;;5.91;100.00
65997;BME280;52765;52.258;21.052;2023-12-20T09:15:56;99604.25;;;5.90;100.00
65997;BME280;52765;52.258;21.052;2023-12-20T09:18:21;99601.28;;;5.93;100.00
65997;BME280;52765;52.258;21.052;2023-12-20T09:20:50;99591.72;;;5.90;100.00
65997;BME280;52765;52.258;21.052;2023-12-20T09:23:18;99581.72;;;6.02;100.00
65997;BME280;52765;52.258;21.052;2023-12-20T09:25:44;99588.91;;;6.02;100.00
65997;BME280;52765;52.258;21.052;2023-12-20T09:28:10;99577.53;;;6.00;100.00
65997;BME280;52765;52.258;21.052;2023-12-20T09:30:35;99572.31;;;5.98;100.00
65997;BME280;52765;52.258;21.052;2023-12-20T09:33:04;99579.47;;;5.98;100.00
65997;BME280;52765;52.258;21.052;2023-12-20T09:35:30;99569.34;;;6.01;100.00
65997;BME280;52765;52.258;21.052;2023-12-20T09:37:55;99566.34;;;6.04;100.00
65997;BME280;52765;52.258;21.052;2023-12-20T09:40:20;99560.19;;;6.04;100.00
65997;BME280;52765;52.258;21.052;2023-12-20T09:42:48;99563.41;;;6.07;100.00
65997;BME280;52765;52.258;21.052;2023-12-20T09:45:16;99566.94;;;6.08;100.00
65997;BME280;52765;52.258;21.052;2023-12-20T09:47:44;99563.81;;;6.03;100.00
65997;BME280;52765;52.258;21.052;2023-12-20T09:50:10;99559.34;;;6.03;100.00
65997;BME280;52765;52.258;21.052;2023-12-20T09:52:36;99565.38;;;6.05;100.00
65997;BME280;52765;52.258;21.052;2023-12-20T09:55:01;99558.47;;;6.03;100.00
65997;BME280;52765;52.258;21.052;2023-12-20T09:57:31;99558.91;;;6.08;100.00
65997;BME280;52765;52.258;21.052;2023-12-20T09:59:56;99560.88;;;6.06;100.00
65997;BME280;52765;52.258;21.052;2023-12-20T10:02:21;99556.06;;;6.09;100.00
65997;BME280;52765;52.258;21.052;2023-12-20T10:04:50;99554.41;;;6.08;100.00
65997;BME280;52765;52.258;21.052;2023-12-20T10:07:15;99549.19;;;6.07;100.00
65997;BME280;52765;52.258;21.052;2023-12-20T10:09:41;99544.00;;;6.05;100.00
65997;BME280;52765;52.258;21.052;2023-12-20T10:12:07;99547.97;;;6.01;100.00
65997;BME280;52765;52.258;21.052;2023-12-20T10:14:32;99556.28;;;5.98;100.00
65997;BME280;52765;52.258;21.052;2023-12-20T10:17:03;99555.25;;;5.99;100.00
65997;BME280;52765;52.258;21.052;2023-12-20T10:19:29;99553.84;;;6.05;100.00
65997;BME280;52765;52.258;21.052;2023-12-20T10:21:54;99543.16;;;5.95;100.00
65997;BME280;52765;52.258;21.052;2023-12-20T10:24:20;99542.91;;;5.88;100.00
65997;BME280;52765;52.258;21.052;2023-12-20T10:26:45;99550.34;;;5.95;100.00
65997;BME280;52765;52.258;21.052;2023-12-20T10:29:11;99541.50;;;5.84;100.00
65997;BME280;52765;52.258;21.052;2023-12-20T10:31:36;99538.69;;;5.86;100.00
65997;BME280;52765;52.258;21.052;2023-12-20T10:34:03;99528.53;;;5.89;100.00
65997;BME280;52765;52.258;21.052;2023-12-20T10:36:32;99531.06;;;5.91;100.00
65997;BME280;52765;52.258;21.052;2023-12-20T10:38:58;99530.09;;;5.92;100.00
65997;BME280;52765;52.258;21.052;2023-12-20T10:41:30;99524.63;;;5.84;100.00
65997;BME280;52765;52.258;21.052;2023-12-20T10:43:56;99529.53;;;5.88;100.00
65997;BME280;52765;52.258;21.052;2023-12-20T10:46:23;99522.59;;;5.96;100.00
65997;BME280;52765;52.258;21.052;2023-12-20T10:48:51;99531.94;;;5.91;100.00
65997;BME280;52765;52.258;21.052;2023-12-20T10:51:18;99533.59;;;5.92;100.00
65997;BME280;52765;52.258;21.052;2023-12-20T10:53:45;99539.81;;;5.93;100.00
65997;BME280;52765;52.258;21.052;2023-12-20T10:56:12;99536.69;;;5.98;100.00
65997;BME280;52765;52.258;21.052;2023-12-20T10:58:41;99533.31;;;5.96;100.00
65997;BME280;52765;52.258;21.052;2023-12-20T11:01:07;99532.34;;;5.97;100.00
65997;BME280;52765;52.258;21.052;2023-12-20T11:03:34;99530.38;;;5.99;100.00
65997;BME280;52765;52.258;21.052;2023-12-20T11:06:44;99516.16;;;5.98;100.00
65997;BME280;52765;52.258;21.052;2023-12-20T11:16:26;99495.44;;;6.10;100.00
65997;BME280;52765;52.258;21.052;2023-12-20T11:18:52;99493.59;;;6.10;100.00
65997;BME280;52765;52.258;21.052;2023-12-20T11:21:17;99487.75;;;5.97;100.00
65997;BME280;52765;52.258;21.052;2023-12-20T11:23:42;99494.78;;;5.98;100.00
65997;BME280;52765;52.258;21.052;2023-12-20T11:26:08;99474.22;;;5.99;100.00
65997;BME280;52765;52.258;21.052;2023-12-20T11:28:33;99477.59;;;6.01;100.00
65997;BME280;52765;52.258;21.052;2023-12-20T11:31:00;99476.75;;;6.00;100.00
65997;BME280;52765;52.258;21.052;2023-12-20T11:33:26;99480.66;;;6.06;100.00
65997;BME280;52765;52.258;21.052;2023-12-20T11:35:52;99485.16;;;6.05;100.00
65997;BME280;52765;52.258;21.052;2023-12-20T11:38:20;99479.69;;;6.07;100.00
65997;BME280;52765;52.258;21.052;2023-12-20T11:40:47;99469.91;;;6.16;100.00
65997;BME280;52765;52.258;21.052;2023-12-20T11:43:13;99474.13;;;6.18;100.00
65997;BME280;52765;52.258;21.052;2023-12-20T11:45:54;99463.97;;;6.22;100.00
65997;BME280;52765;52.258;21.052;2023-12-20T11:48:19;99461.97;;;6.24;100.00
65997;BME280;52765;52.258;21.052;2023-12-20T11:50:44;99463.13;;;6.21;100.00
65997;BME280;52765;52.258;21.052;2023-12-20T11:53:10;99459.44;;;6.22;100.00
65997;BME280;52765;52.258;21.052;2023-12-20T11:55:35;99452.59;;;6.20;100.00
65997;BME280;52765;52.258;21.052;2023-12-20T11:58:01;99443.84;;;6.18;100.00
65997;BME280;52765;52.258;21.052;2023-12-20T12:00:27;99443.06;;;6.07;100.00
65997;BME280;52765;52.258;21.052;2023-12-20T12:02:56;99439.41;;;6.08;100.00
65997;BME280;52765;52.258;21.052;2023-12-20T12:05:22;99444.47;;;6.11;100.00
65997;BME280;52765;52.258;21.052;2023-12-20T12:07:47;99441.06;;;6.09;100.00
65997;BME280;52765;52.258;21.052;2023-12-20T12:10:13;99433.53;;;6.05;100.00
65997;BME280;52765;52.258;21.052;2023-12-20T12:12:38;99442.00;;;6.00;100.00
65997;BME280;52765;52.258;21.052;2023-12-20T12:15:04;99449.03;;;6.01;100.00
65997;BME280;52765;52.258;21.052;2023-12-20T12:17:30;99437.06;;;5.96;100.00
65997;BME280;52765;52.258;21.052;2023-12-20T12:22:57;99440.19;;;5.91;100.00
65997;BME280;52765;52.258;21.052;2023-12-20T12:25:22;99428.81;;;5.89;100.00
65997;BME280;52765;52.258;21.052;2023-12-20T12:27:48;99431.53;;;5.79;100.00
65997;BME280;52765;52.258;21.052;2023-12-20T12:30:15;99424.38;;;5.80;100.00
65997;BME280;52765;52.258;21.052;2023-12-20T12:32:43;99423.25;;;5.72;100.00
65997;BME280;52765;52.258;21.052;2023-12-20T12:35:08;99422.03;;;5.67;100.00
65997;BME280;52765;52.258;21.052;2023-12-20T12:37:40;99420.59;;;5.72;100.00
65997;BME280;52765;52.258;21.052;2023-12-20T12:40:06;99424.94;;;5.73;100.00
65997;BME280;52765;52.258;21.052;2023-12-20T12:42:32;99418.16;;;5.79;100.00
65997;BME280;52765;52.258;21.052;2023-12-20T12:44:57;99415.63;;;5.78;100.00
65997;BME280;52765;52.258;21.052;2023-12-20T12:47:25;99416.75;;;5.85;100.00
65997;BME280;52765;52.258;21.052;2023-12-20T12:49:51;99419.94;;;5.88;100.00
65997;BME280;52765;52.258;21.052;2023-12-20T12:52:17;99416.75;;;5.85;100.00
65997;BME280;52765;52.258;21.052;2023-12-20T12:54:43;99422.22;;;5.83;100.00